Date,TemperatureHighF,TemperatureAvgF,TemperatureLowF,DewpointHighF,DewpointAvgF,DewpointLowF,HumidityHigh,HumidityAvg,HumidityLow,PressureMaxIn,PressureMinIn,WindSpeedMaxMPH,WindSpeedAvgMPH,GustSpeedMaxMPH,PrecipitationSumIn
2013-1-1,50.1,40.6,29.6,32.2,22.1,-5.6,65,49,21,30.15,30.08,0,0,0,0.00
2013-1-2,53.2,44.0,37.7,30.6,25.0,19.6,64,48,38,30.12,30.03,0,0,0,0.00
2013-1-3,55.0,43.0,38.1,36.7,27.7,20.1,65,55,42,30.15,30.03,0,0,0,0.00
2013-1-4,55.0,44.5,38.7,35.4,28.8,22.0,62,54,42,30.17,30.08,0,0,0,0.00
2013-1-5,44.5,40.2,36.2,25.8,-3.1,-42.4,58,26,1,30.13,29.96,0,0,0,0.00
2013-1-6,46.4,39.0,35.8,-36.9,-41.4,-43.6,2,1,1,30.07,29.95,0,0,0,0.00
2013-1-7,56.8,45.1,34.6,12.6,-24.3,-44.4,21,5,1,30.12,30.04,0,0,0,0.00
2013-1-8,62.6,49.2,40.8,45.1,0.8,-40.4,54,20,1,30.13,30.03,0,0,0,0.00
2013-1-9,44.7,40.2,29.8,-37.8,-40.7,-47.6,1,1,1,30.05,29.84,0,0,0,0.00
2013-1-10,47.1,35.6,27.2,31.6,0.3,-49.3,60,33,1,30.02,29.90,0,0,0,0.00
2013-1-11,46.0,37.0,29.4,31.6,19.5,-2.4,61,50,23,30.09,29.98,0,0,0,0.00
2013-1-12,45.5,36.6,30.2,30.6,21.3,2.1,62,54,29,30.09,29.99,0,0,0,0.00
2013-1-13,46.7,37.7,30.0,19.7,14.4,8.8,58,39,28,30.10,30.03,0,0,0,0.00
2013-1-14,50.9,41.1,33.6,24.5,15.2,8.3,52,35,27,30.25,30.09,0,0,0,0.00
2013-1-15,56.3,43.4,36.0,35.3,23.8,16.5,63,46,36,30.33,30.24,0,0,0,0.00
2013-1-16,60.8,51.5,42.3,32.8,27.2,21.6,57,39,28,30.28,30.14,0,0,0,0.00
2013-1-17,64.5,55.3,49.2,30.4,22.0,15.1,38,27,22,30.15,30.07,0,0,0,0.00
2013-1-18,63.3,53.3,47.7,30.9,23.5,17.0,38,32,24,30.13,30.05,0,0,0,0.00
2013-1-19,61.5,52.1,45.3,30.6,22.2,17.1,37,31,25,30.16,30.07,0,0,0,0.00
2013-1-20,62.6,51.8,44.2,32.7,23.1,16.0,50,33,23,30.13,30.04,0,0,0,0.00
2013-1-21,62.9,53.2,43.7,35.7,25.4,19.2,55,35,23,30.08,30.01,0,0,0,0.00
2013-1-22,59.9,51.3,46.3,38.5,29.2,21.4,60,43,32,30.03,29.92,0,0,0,0.00
2013-1-23,54.6,47.5,43.3,37.1,1.5,-38.7,61,30,1,30.00,29.87,0,0,0,0.00
2013-1-24,53.9,48.1,44.8,-31.8,-35.5,-37.7,1,1,1,30.09,29.96,0,0,0,0.00
2013-1-25,57.1,49.7,43.5,13.1,-23.7,-38.6,18,5,1,30.09,29.95,0,0,0,0.00
2013-1-26,51.9,43.8,36.1,30.5,-10.9,-39.8,48,17,1,29.95,29.84,0,0,0,0.00
2013-1-27,50.3,39.3,29.1,34.8,14.5,-22.7,59,39,10,30.03,29.91,0,0,0,0.00
2013-1-28,53.4,41.7,31.7,38.2,21.6,-3.0,57,46,23,30.15,30.00,0,0,0,0.00
2013-1-29,59.0,46.9,32.3,40.9,24.9,-1.9,58,43,22,30.21,30.13,0,0,0,0.00
2013-1-30,66.0,54.8,44.9,46.7,34.8,16.0,60,47,29,30.23,30.15,0,0,0,0.00
2013-1-31,64.9,52.2,44.7,44.0,30.3,-8.9,57,45,11,30.18,30.09,0,0,0,0.00